Terminal Aerodrome Forecast
Issued by NWS

Home | Current Version | Previous Version | Text Only | Print | Product List | Glossary On
Versions: 1 2 3 4 5 6 7 8 9 10 11 12 13 14 15 16 17 18 19 20 21 22 23 24 25 26 27 28
000
FTUS45 KLKN 101728
TAFEKO
TAF
KEKO 101728Z 1018/1118 23008KT 6SM -RA SCT015 OVC050
      TEMPO 1018/1022 24008KT 4SM -RA OVC015
     FM110500 23006KT P6SM VCSH SCT015 BKN050
     FM111200 VRB06KT P6SM BKN050=

USA.gov is the U.S. government's official web portal to all federal, state and local government web resources and services.